Time;durP1;ratioP1;P1;durP2;ratioP2;P2;SDS_P1;SDS_P2;PMS_P1;PMS_P2;Temp;Humidity;BMP_temperature;BMP_pressure;BME280_temperature;BME280_humidity;BME280_pressure;Samples;Min_cycle;Max_cycle;Signal;HPM_P1;HPM_P2
2022/08/01 00:01:51;;;;;;;9.02;5.70;;;18.90;99.90;;;;;;5005445;28;20484;-63
2022/08/01 00:04:17;;;;;;;7.15;5.28;;;18.90;99.90;;;;;;5010539;28;20496;-63
2022/08/01 00:06:43;;;;;;;7.63;5.30;;;18.80;99.90;;;;;;5009995;28;20046;-64
2022/08/01 00:09:08;;;;;;;7.22;5.20;;;18.90;99.90;;;;;;5007042;28;20100;-63
2022/08/01 00:11:34;;;;;;;8.07;5.38;;;18.90;99.90;;;;;;5003844;28;20229;-63
2022/08/01 00:13:59;;;;;;;7.55;5.07;;;18.80;99.90;;;;;;5008751;28;20088;-63
2022/08/01 00:16:25;;;;;;;6.80;4.75;;;18.80;99.90;;;;;;5007179;28;20034;-64
2022/08/01 00:18:51;;;;;;;8.63;5.82;;;18.80;99.90;;;;;;5003939;28;20040;-65
2022/08/01 00:21:17;;;;;;;8.43;5.38;;;18.80;99.90;;;;;;5010436;28;20030;-63
2022/08/01 00:23:45;;;;;;;8.98;5.60;;;18.80;99.90;;;;;;5009418;28;20034;-64
2022/08/01 00:26:11;;;;;;;7.85;5.55;;;18.80;99.90;;;;;;5003262;28;20068;-63
2022/08/01 00:28:37;;;;;;;8.90;5.80;;;18.80;99.90;;;;;;5005011;28;20049;-64
2022/08/01 00:31:03;;;;;;;7.63;5.28;;;18.80;99.90;;;;;;5010323;28;20041;-63
2022/08/01 00:33:28;;;;;;;8.57;6.10;;;18.80;99.90;;;;;;5010024;28;20480;-63
2022/08/01 00:35:54;;;;;;;7.72;5.47;;;18.80;99.90;;;;;;5006203;28;20128;-63
2022/08/01 00:38:20;;;;;;;7.80;5.43;;;18.80;99.90;;;;;;5005542;28;20392;-63
2022/08/01 00:40:46;;;;;;;7.15;5.60;;;18.80;99.90;;;;;;5008942;28;20042;-63
2022/08/01 00:43:11;;;;;;;8.45;5.72;;;18.80;99.90;;;;;;5003624;28;20049;-65
2022/08/01 00:45:37;;;;;;;8.20;5.38;;;18.70;99.90;;;;;;5009225;28;20041;-64
2022/08/01 00:48:03;;;;;;;9.25;6.53;;;18.70;99.90;;;;;;5007967;28;20417;-63
2022/08/01 00:50:29;;;;;;;7.50;5.22;;;18.70;99.90;;;;;;5010530;28;20092;-64
2022/08/01 00:52:56;;;;;;;7.72;5.57;;;18.70;99.90;;;;;;4992900;28;20084;-64
2022/08/01 00:55:22;;;;;;;7.85;5.10;;;18.70;99.90;;;;;;5009824;28;20076;-64
2022/08/01 00:57:49;;;;;;;10.38;5.47;;;18.70;99.90;;;;;;5009787;28;20288;-63
2022/08/01 01:00:15;;;;;;;9.55;5.70;;;18.70;99.90;;;;;;5007090;28;20447;-64
2022/08/01 01:02:40;;;;;;;9.32;5.65;;;18.70;99.90;;;;;;5001333;28;20049;-64
2022/08/01 01:05:07;;;;;;;9.25;5.93;;;18.70;99.90;;;;;;4995008;28;20038;-66
2022/08/01 01:07:36;;;;;;;8.55;5.15;;;18.70;99.90;;;;;;5007736;28;20065;-64
2022/08/01 01:10:09;;;;;;;7.45;5.45;;;18.70;99.90;;;;;;5008037;28;20050;-66
2022/08/01 01:12:37;;;;;;;8.98;5.28;;;18.70;99.90;;;;;;5005028;28;20046;-64
2022/08/01 01:15:16;;;;;;;8.32;5.30;;;18.70;99.90;;;;;;5008936;28;20528;-63
2022/08/01 01:17:56;;;;;;;8.02;5.07;;;18.70;99.90;;;;;;5004833;28;20073;-63
2022/08/01 01:20:28;;;;;;;6.60;4.88;;;18.70;99.90;;;;;;4997262;28;20061;-63
2022/08/01 01:23:03;;;;;;;7.68;4.97;;;18.70;99.90;;;;;;5005967;28;20052;-63
2022/08/01 01:25:44;;;;;;;7.18;4.80;;;18.70;99.90;;;;;;4990728;28;20455;-64
2022/08/01 01:28:31;;;;;;;6.03;4.40;;;18.70;99.90;;;;;;4993744;28;20057;-63
2022/08/01 01:30:58;;;;;;;6.70;4.65;;;18.70;99.90;;;;;;5009468;28;20304;-63
2022/08/01 01:33:28;;;;;;;5.97;4.40;;;18.70;99.90;;;;;;5007233;28;20396;-63
2022/08/01 01:36:01;;;;;;;6.22;4.55;;;18.70;99.90;;;;;;5012350;28;20045;-64
2022/08/01 01:38:33;;;;;;;8.32;4.22;;;18.70;99.90;;;;;;5008443;28;20117;-64
2022/08/01 01:41:02;;;;;;;7.07;4.50;;;18.70;99.90;;;;;;5002354;28;20088;-67
2022/08/01 01:43:29;;;;;;;6.15;4.20;;;18.60;99.90;;;;;;5005529;28;20034;-64
2022/08/01 01:45:56;;;;;;;6.13;4.35;;;18.60;99.90;;;;;;5005781;28;20416;-63
2022/08/01 01:48:23;;;;;;;5.40;4.13;;;18.60;99.90;;;;;;5011124;28;20029;-64
2022/08/01 01:50:51;;;;;;;7.25;4.85;;;18.60;99.90;;;;;;5010407;28;20092;-64
2022/08/01 01:53:21;;;;;;;5.55;4.20;;;18.60;99.90;;;;;;5007993;28;20038;-64
2022/08/01 01:55:51;;;;;;;6.55;4.45;;;18.60;99.90;;;;;;5012969;28;20042;-67
2022/08/01 01:58:19;;;;;;;7.93;4.30;;;18.60;99.90;;;;;;5009955;28;20034;-64
2022/08/01 02:00:46;;;;;;;5.80;4.20;;;18.60;99.90;;;;;;5012010;28;20088;-64
2022/08/01 02:03:14;;;;;;;6.03;4.53;;;18.60;99.90;;;;;;5011216;28;20113;-65
2022/08/01 02:05:42;;;;;;;6.15;4.50;;;18.60;99.90;;;;;;5013264;28;20046;-65
2022/08/01 02:08:09;;;;;;;7.35;4.38;;;18.60;99.90;;;;;;5009104;28;20432;-64
2022/08/01 02:10:37;;;;;;;7.60;4.70;;;18.60;99.90;;;;;;5013215;28;20041;-64
2022/08/01 02:13:06;;;;;;;6.20;3.78;;;18.60;99.90;;;;;;5011833;28;20041;-64
2022/08/01 02:15:34;;;;;;;6.78;4.13;;;18.60;99.90;;;;;;5012257;28;20085;-65
2022/08/01 02:18:01;;;;;;;5.43;4.15;;;18.60;99.90;;;;;;5010896;28;20524;-65
2022/08/01 02:20:29;;;;;;;7.65;4.18;;;18.60;99.90;;;;;;5012406;28;20034;-65
2022/08/01 02:23:15;;;;;;;6.45;3.80;;;18.60;99.90;;;;;;5011606;28;20157;-65
2022/08/01 02:25:41;;;;;;;6.25;3.75;;;18.60;99.90;;;;;;5012375;28;20049;-65
2022/08/01 02:28:12;;;;;;;5.68;3.25;;;18.50;99.90;;;;;;5010450;28;20434;-66
2022/08/01 02:30:42;;;;;;;4.82;2.80;;;18.50;99.90;;;;;;5011786;28;20053;-64
2022/08/01 02:33:20;;;;;;;6.25;3.00;;;18.50;99.90;;;;;;5011969;28;20049;-65
2022/08/01 02:35:50;;;;;;;5.70;3.00;;;18.50;99.90;;;;;;5007255;28;20038;-64
2022/08/01 02:38:18;;;;;;;4.18;2.97;;;18.50;99.90;;;;;;5010202;28;20037;-64
2022/08/01 02:40:47;;;;;;;4.45;2.92;;;18.50;99.90;;;;;;5012359;28;20041;-64
2022/08/01 02:43:18;;;;;;;4.05;2.80;;;18.50;99.90;;;;;;5011969;28;20045;-67
2022/08/01 02:45:48;;;;;;;4.38;3.10;;;18.50;99.90;;;;;;5012280;28;20069;-65
2022/08/01 02:48:16;;;;;;;4.95;3.10;;;18.50;99.90;;;;;;5011825;28;20038;-64
2022/08/01 02:50:47;;;;;;;3.65;2.92;;;18.50;99.90;;;;;;5011586;28;20466;-64
2022/08/01 02:53:14;;;;;;;4.45;3.03;;;18.50;99.90;;;;;;5010886;28;20041;-64
2022/08/01 02:55:42;;;;;;;4.63;3.50;;;18.50;99.90;;;;;;5010407;28;20488;-65
2022/08/01 02:58:10;;;;;;;5.55;3.53;;;18.50;99.90;;;;;;5009078;28;20034;-65
2022/08/01 03:00:36;;;;;;;4.68;3.50;;;18.50;99.90;;;;;;5011935;28;20034;-65
2022/08/01 03:03:04;;;;;;;5.43;3.80;;;18.50;99.90;;;;;;5012239;28;20413;-65
2022/08/01 03:05:31;;;;;;;4.75;3.45;;;18.50;99.90;;;;;;5011876;28;20117;-65
2022/08/01 03:07:59;;;;;;;4.88;3.70;;;18.50;99.90;;;;;;5009565;28;20488;-64
2022/08/01 03:10:27;;;;;;;5.40;3.97;;;18.50;99.90;;;;;;5004106;28;20034;-64
2022/08/01 03:12:54;;;;;;;8.23;4.30;;;18.50;99.90;;;;;;5010579;28;20118;-64
2022/08/01 03:15:22;;;;;;;6.95;3.85;;;18.40;99.90;;;;;;5010512;28;20045;-67
2022/08/01 03:17:51;;;;;;;7.15;3.88;;;18.50;99.90;;;;;;5009332;28;20042;-64
2022/08/01 03:20:18;;;;;;;6.60;4.35;;;18.40;99.90;;;;;;5010276;28;20066;-64
2022/08/01 03:22:45;;;;;;;6.65;3.90;;;18.40;99.90;;;;;;5009957;28;20117;-66
2022/08/01 03:25:14;;;;;;;5.43;3.70;;;18.40;99.90;;;;;;5010058;28;20046;-64
2022/08/01 03:27:42;;;;;;;7.50;3.58;;;18.40;99.90;;;;;;5011104;28;20153;-67
2022/08/01 03:30:10;;;;;;;6.07;3.38;;;18.40;99.90;;;;;;5008061;28;20109;-64
2022/08/01 03:32:36;;;;;;;5.35;3.35;;;18.40;99.90;;;;;;5003848;28;20116;-64
2022/08/01 03:35:02;;;;;;;6.07;3.40;;;18.40;99.90;;;;;;5008772;28;20129;-64
2022/08/01 03:37:57;;;;;;;5.20;3.28;;;18.40;99.90;;;;;;5005536;28;20045;-64
2022/08/01 03:40:35;;;;;;;4.43;2.88;;;18.40;99.90;;;;;;4996627;28;20046;-66
2022/08/01 03:43:06;;;;;;;4.82;3.00;;;18.40;99.90;;;;;;5011766;28;20253;-67
2022/08/01 03:45:38;;;;;;;4.50;3.05;;;18.40;99.90;;;;;;5010339;28;20238;-64
2022/08/01 03:48:11;;;;;;;3.25;2.30;;;18.40;99.90;;;;;;5008888;28;20052;-64
2022/08/01 03:50:41;;;;;;;4.93;2.60;;;18.30;99.90;;;;;;5005970;28;20452;-65
2022/08/01 03:53:09;;;;;;;4.82;2.60;;;18.30;99.90;;;;;;5009280;28;20052;-66
2022/08/01 03:55:37;;;;;;;5.90;2.72;;;18.30;99.90;;;;;;5011284;28;20038;-64
2022/08/01 03:58:05;;;;;;;5.50;2.72;;;18.30;99.90;;;;;;5006502;28;20117;-64
2022/08/01 04:00:30;;;;;;;3.67;2.22;;;18.30;99.90;;;;;;5009406;28;20765;-64
2022/08/01 04:02:57;;;;;;;4.93;2.45;;;18.30;99.90;;;;;;5011703;28;20040;-64
2022/08/01 04:05:23;;;;;;;5.40;2.88;;;18.30;99.90;;;;;;5010578;28;20112;-64
2022/08/01 04:07:55;;;;;;;5.00;2.63;;;18.30;99.90;;;;;;5003861;28;20489;-66
2022/08/01 04:10:22;;;;;;;5.00;2.80;;;18.30;99.90;;;;;;5008107;28;20408;-64
2022/08/01 04:12:48;;;;;;;3.40;2.60;;;18.30;99.90;;;;;;5010526;28;20124;-64
2022/08/01 04:15:14;;;;;;;5.20;2.70;;;18.20;99.90;;;;;;5009609;28;20038;-64
2022/08/01 04:17:40;;;;;;;5.25;2.58;;;18.30;99.90;;;;;;5009847;28;21505;-64
2022/08/01 04:20:06;;;;;;;7.47;2.50;;;18.30;99.90;;;;;;5001396;28;20502;-64
2022/08/01 04:22:32;;;;;;;5.10;2.40;;;18.20;99.90;;;;;;5006324;28;20654;-64
2022/08/01 04:25:01;;;;;;;4.68;2.50;;;18.30;99.90;;;;;;5008489;28;20060;-64
2022/08/01 04:27:32;;;;;;;6.38;2.17;;;18.20;99.90;;;;;;5001505;28;20408;-64
2022/08/01 04:29:59;;;;;;;6.40;2.40;;;18.20;99.90;;;;;;5008622;28;20038;-64
2022/08/01 04:32:30;;;;;;;5.43;2.35;;;18.20;99.90;;;;;;5008572;28;20335;-64
2022/08/01 04:34:58;;;;;;;5.60;2.55;;;18.20;99.90;;;;;;5008704;28;20769;-63
2022/08/01 04:37:25;;;;;;;3.40;2.10;;;18.20;99.90;;;;;;5008075;28;20042;-63
2022/08/01 04:39:52;;;;;;;6.30;2.15;;;18.20;99.90;;;;;;5009988;28;20049;-64
2022/08/01 04:42:18;;;;;;;4.28;2.22;;;18.20;99.90;;;;;;5009507;28;20045;-63
2022/08/01 04:44:44;;;;;;;6.43;2.60;;;18.20;99.90;;;;;;5009830;28;20057;-63
2022/08/01 04:47:11;;;;;;;5.55;2.60;;;18.20;99.90;;;;;;5008412;28;20439;-64
2022/08/01 04:49:37;;;;;;;5.03;2.30;;;18.20;99.90;;;;;;5009874;28;20141;-64
2022/08/01 04:52:03;;;;;;;4.50;2.10;;;18.20;99.90;;;;;;5007179;28;20540;-64
2022/08/01 04:54:36;;;;;;;4.35;2.33;;;18.20;99.90;;;;;;5010026;28;20080;-64
2022/08/01 04:57:06;;;;;;;4.32;2.15;;;18.20;99.90;;;;;;5008346;28;20574;-64
2022/08/01 04:59:40;;;;;;;5.00;2.08;;;18.20;99.90;;;;;;5009723;28;20034;-66
2022/08/01 05:02:10;;;;;;;8.27;2.30;;;18.20;99.90;;;;;;5003684;28;20591;-65
2022/08/01 05:04:37;;;;;;;6.38;2.45;;;18.20;99.90;;;;;;5004562;28;20041;-66
2022/08/01 05:07:04;;;;;;;3.88;2.40;;;18.20;99.90;;;;;;5006652;28;20500;-66
2022/08/01 05:09:30;;;;;;;5.43;2.30;;;18.20;99.90;;;;;;5009353;28;20415;-66
2022/08/01 05:12:01;;;;;;;8.02;3.17;;;18.20;99.90;;;;;;5012729;28;20100;-66
2022/08/01 05:14:28;;;;;;;10.40;2.75;;;18.20;99.90;;;;;;5012832;28;20520;-65
2022/08/01 05:16:53;;;;;;;7.10;2.45;;;18.20;99.90;;;;;;5013667;28;20096;-65
2022/08/01 05:19:19;;;;;;;7.25;3.03;;;18.20;99.90;;;;;;5010524;28;20045;-63
2022/08/01 05:21:45;;;;;;;8.95;2.90;;;18.20;99.90;;;;;;4999917;28;20029;-64
2022/08/01 05:24:12;;;;;;;6.70;2.90;;;18.20;99.90;;;;;;5011250;28;20064;-66
2022/08/01 05:26:38;;;;;;;6.65;2.55;;;18.20;99.90;;;;;;5010894;28;20045;-65
2022/08/01 05:29:04;;;;;;;5.75;3.20;;;18.20;99.90;;;;;;5011141;28;20464;-65
2022/08/01 05:31:32;;;;;;;8.25;3.10;;;18.20;99.90;;;;;;5012887;28;20044;-65
2022/08/01 05:34:01;;;;;;;7.22;2.90;;;18.20;99.90;;;;;;5012049;28;20050;-65
2022/08/01 05:36:27;;;;;;;7.35;2.80;;;18.20;99.90;;;;;;5008826;28;20500;-65
2022/08/01 05:38:53;;;;;;;5.43;2.97;;;18.20;99.90;;;;;;5008935;28;20052;-65
2022/08/01 05:41:18;;;;;;;9.55;3.08;;;18.20;99.90;;;;;;5012397;28;20096;-66
2022/08/01 05:43:44;;;;;;;5.88;2.63;;;18.20;99.90;;;;;;5009508;28;20088;-65
2022/08/01 05:46:10;;;;;;;8.27;2.88;;;18.20;99.90;;;;;;5011499;28;20117;-64
2022/08/01 05:48:35;;;;;;;9.50;3.00;;;18.20;99.90;;;;;;5010712;28;20159;-66
2022/08/01 05:51:01;;;;;;;7.53;2.97;;;18.20;99.90;;;;;;5012590;28;20063;-65
2022/08/01 05:53:27;;;;;;;6.93;2.88;;;18.30;99.90;;;;;;5010827;28;20427;-66
2022/08/01 05:55:52;;;;;;;8.13;3.38;;;18.30;99.90;;;;;;5012112;28;20497;-64
2022/08/01 05:58:18;;;;;;;8.60;2.90;;;18.30;99.90;;;;;;5009189;28;20091;-66
2022/08/01 06:00:43;;;;;;;7.72;2.90;;;18.30;99.90;;;;;;5011142;28;20041;-66
2022/08/01 06:03:11;;;;;;;11.27;3.25;;;18.30;99.90;;;;;;5011371;28;20184;-65
2022/08/01 06:05:36;;;;;;;8.35;3.40;;;18.40;99.90;;;;;;5008657;28;20420;-63
2022/08/01 06:08:02;;;;;;;8.40;2.92;;;18.40;99.90;;;;;;5008774;28;20046;-66
2022/08/01 06:10:28;;;;;;;9.80;3.28;;;18.40;99.90;;;;;;5011152;28;20045;-66
2022/08/01 06:12:54;;;;;;;9.88;3.20;;;18.50;99.90;;;;;;5010671;28;20041;-65
2022/08/01 06:15:19;;;;;;;10.00;3.30;;;18.40;99.90;;;;;;5011157;28;20046;-66
2022/08/01 06:17:45;;;;;;;8.63;3.25;;;18.50;99.90;;;;;;5010931;28;20109;-65
2022/08/01 06:20:11;;;;;;;9.70;3.08;;;18.50;99.90;;;;;;5007877;28;20100;-66
2022/08/01 06:22:37;;;;;;;11.25;3.05;;;18.50;99.90;;;;;;5011437;28;20443;-66
2022/08/01 06:25:03;;;;;;;9.23;3.22;;;18.50;99.90;;;;;;5011822;28;20508;-66
2022/08/01 06:27:28;;;;;;;14.32;3.67;;;18.50;99.90;;;;;;5009069;28;20076;-65
2022/08/01 06:29:54;;;;;;;11.70;3.08;;;18.50;99.90;;;;;;5008342;28;20085;-66
2022/08/01 06:32:24;;;;;;;8.10;2.97;;;18.50;99.90;;;;;;5010928;28;20049;-65
2022/08/01 06:34:50;;;;;;;9.93;3.15;;;18.50;99.90;;;;;;5012517;28;20046;-66
2022/08/01 06:37:15;;;;;;;10.57;3.03;;;18.50;99.90;;;;;;4993464;28;20146;-63
2022/08/01 06:39:41;;;;;;;8.85;3.15;;;18.50;99.90;;;;;;5013016;28;20050;-65
2022/08/01 06:42:06;;;;;;;8.68;2.90;;;18.50;99.90;;;;;;5009983;28;20121;-66
2022/08/01 06:44:32;;;;;;;10.20;3.33;;;18.50;99.90;;;;;;5010708;28;20048;-65
2022/08/01 06:47:00;;;;;;;9.70;2.95;;;18.60;99.90;;;;;;5003407;28;20049;-66
2022/08/01 06:49:26;;;;;;;10.57;3.15;;;18.60;99.90;;;;;;4999856;28;20064;-65
2022/08/01 06:51:52;;;;;;;13.23;3.30;;;18.60;99.90;;;;;;5008255;28;20042;-64
2022/08/01 06:54:18;;;;;;;10.73;3.30;;;18.60;99.90;;;;;;5009065;28;20413;-66
2022/08/01 06:56:43;;;;;;;10.50;3.25;;;18.60;99.90;;;;;;5010578;28;20113;-66
2022/08/01 06:59:09;;;;;;;12.50;2.97;;;18.60;99.90;;;;;;5007276;28;20041;-66
2022/08/01 07:01:34;;;;;;;10.88;3.20;;;18.60;99.90;;;;;;5006624;28;20037;-66
2022/08/01 07:04:01;;;;;;;10.93;3.15;;;18.60;99.90;;;;;;5008143;28;20030;-64
2022/08/01 07:06:26;;;;;;;15.18;3.63;;;18.60;99.90;;;;;;5008481;28;20084;-64
2022/08/01 07:08:53;;;;;;;16.65;3.45;;;18.60;99.90;;;;;;5009454;28;20116;-65
2022/08/01 07:11:19;;;;;;;10.13;3.30;;;18.70;99.90;;;;;;5009360;28;20042;-65
2022/08/01 07:13:45;;;;;;;15.18;3.53;;;18.70;99.90;;;;;;5004376;28;20038;-65
2022/08/01 07:16:11;;;;;;;11.82;3.03;;;18.70;99.90;;;;;;5010758;28;20056;-66
2022/08/01 07:18:37;;;;;;;10.02;2.92;;;18.80;99.90;;;;;;5009605;28;20052;-65
2022/08/01 07:21:03;;;;;;;13.45;3.10;;;18.80;99.90;;;;;;5001468;28;20029;-65
2022/08/01 07:23:28;;;;;;;11.38;2.72;;;18.80;99.90;;;;;;5010732;28;20040;-65
2022/08/01 07:25:54;;;;;;;10.18;2.90;;;18.80;99.90;;;;;;5008718;28;20096;-65
2022/08/01 07:28:20;;;;;;;10.90;3.10;;;18.90;99.90;;;;;;5008367;28;20461;-66
2022/08/01 07:30:45;;;;;;;10.85;3.25;;;18.90;99.90;;;;;;5005408;28;20041;-66
2022/08/01 07:33:11;;;;;;;12.30;3.38;;;18.90;99.90;;;;;;5011254;28;20107;-65
2022/08/01 07:35:38;;;;;;;12.48;3.30;;;18.90;99.90;;;;;;5011041;28;20042;-64
2022/08/01 07:38:04;;;;;;;11.15;2.67;;;19.00;99.90;;;;;;5009571;28;20044;-65
2022/08/01 07:40:30;;;;;;;10.95;3.25;;;19.00;99.90;;;;;;5008292;28;20369;-66
2022/08/01 07:42:56;;;;;;;13.40;2.78;;;19.00;99.90;;;;;;4996046;28;20101;-66
2022/08/01 07:45:22;;;;;;;10.68;3.03;;;19.00;99.90;;;;;;5003705;28;20041;-65
2022/08/01 07:47:49;;;;;;;11.07;3.30;;;19.00;99.90;;;;;;5002891;28;20034;-64
2022/08/01 07:50:15;;;;;;;15.65;3.20;;;19.00;99.90;;;;;;5003055;28;20053;-65
2022/08/01 07:52:41;;;;;;;13.32;3.42;;;19.00;99.90;;;;;;5008141;28;20434;-64
2022/08/01 07:55:08;;;;;;;12.75;3.03;;;19.00;99.90;;;;;;5009435;28;20112;-65
2022/08/01 07:57:34;;;;;;;13.70;3.60;;;19.00;99.90;;;;;;5004524;28;20067;-64
2022/08/01 08:00:07;;;;;;;10.02;2.90;;;19.00;99.90;;;;;;5011369;28;20033;-64
2022/08/01 08:02:33;;;;;;;12.57;3.17;;;19.10;99.90;;;;;;5005129;28;20045;-64
2022/08/01 08:04:59;;;;;;;11.80;3.03;;;19.10;99.90;;;;;;5011396;28;20046;-65
2022/08/01 08:07:24;;;;;;;13.85;3.20;;;19.10;99.90;;;;;;5006493;28;20088;-65
2022/08/01 08:09:50;;;;;;;14.98;3.00;;;19.10;99.90;;;;;;5009449;28;20041;-65
2022/08/01 08:12:16;;;;;;;10.68;3.45;;;19.20;99.90;;;;;;5008833;28;20054;-66
2022/08/01 08:14:41;;;;;;;10.45;2.65;;;19.20;99.90;;;;;;5008564;28;20046;-66
2022/08/01 08:17:07;;;;;;;12.95;3.38;;;19.30;99.90;;;;;;5006478;28;20489;-66
2022/08/01 08:19:33;;;;;;;12.15;3.15;;;19.40;99.90;;;;;;4997352;28;20480;-66
2022/08/01 08:22:01;;;;;;;13.13;2.78;;;19.40;99.90;;;;;;5005105;28;20065;-65
2022/08/01 08:24:27;;;;;;;11.80;3.33;;;19.50;99.90;;;;;;5003272;28;20037;-66
2022/08/01 08:27:00;;;;;;;11.85;3.25;;;19.50;99.90;;;;;;5000099;28;20061;-65
2022/08/01 08:29:29;;;;;;;10.63;2.92;;;19.60;99.90;;;;;;4996804;28;20033;-66
2022/08/01 08:31:56;;;;;;;13.27;3.00;;;19.70;99.90;;;;;;5008247;28;20132;-65
2022/08/01 08:34:21;;;;;;;12.75;3.45;;;19.80;99.90;;;;;;5004159;28;20084;-66
2022/08/01 08:36:48;;;;;;;11.63;2.97;;;19.80;99.90;;;;;;5009126;28;20066;-65
2022/08/01 08:39:14;;;;;;;9.95;3.03;;;19.90;99.90;;;;;;5009201;28;20042;-65
2022/08/01 08:41:40;;;;;;;9.82;3.20;;;19.90;99.90;;;;;;5009376;28;20121;-65
2022/08/01 08:44:07;;;;;;;11.20;3.15;;;20.00;99.90;;;;;;5010060;28;20390;-66
2022/08/01 08:46:34;;;;;;;10.80;2.70;;;20.10;99.90;;;;;;5000987;28;20397;-64
2022/08/01 08:49:02;;;;;;;10.65;3.00;;;20.10;99.90;;;;;;5006618;28;20033;-63
2022/08/01 08:51:30;;;;;;;13.18;2.97;;;20.00;99.90;;;;;;5010589;28;20122;-66
2022/08/01 08:53:57;;;;;;;11.55;3.75;;;20.10;99.90;;;;;;5009030;28;20045;-65
2022/08/01 08:56:29;;;;;;;11.57;2.83;;;20.10;99.90;;;;;;5005709;28;20037;-66
2022/08/01 08:58:55;;;;;;;8.70;2.67;;;20.20;99.90;;;;;;4997808;28;20041;-66
2022/08/01 09:01:21;;;;;;;9.93;2.75;;;20.20;99.90;;;;;;5010333;28;20149;-66
2022/08/01 09:03:47;;;;;;;9.00;2.47;;;20.30;99.90;;;;;;5008812;28;20037;-66
2022/08/01 09:06:13;;;;;;;8.40;2.28;;;20.30;99.90;;;;;;5007953;28;20053;-66
2022/08/01 09:08:40;;;;;;;8.82;2.50;;;20.30;99.90;;;;;;5001969;28;20314;-66
2022/08/01 09:11:06;;;;;;;12.63;2.70;;;20.40;99.90;;;;;;5006766;28;20052;-64
2022/08/01 09:13:31;;;;;;;6.78;2.47;;;20.40;99.90;;;;;;5010475;28;20132;-64
2022/08/01 09:15:58;;;;;;;12.40;2.58;;;20.50;99.90;;;;;;5008865;28;20034;-64
2022/08/01 09:18:44;;;;;;;7.05;2.60;;;20.40;99.90;;;;;;5010066;28;20030;-65
2022/08/01 09:21:16;;;;;;;10.90;2.78;;;20.40;99.90;;;;;;5008021;28;20029;-66
2022/08/01 09:23:52;;;;;;;10.85;3.03;;;20.50;99.90;;;;;;5009804;28;20475;-64
2022/08/01 09:26:19;;;;;;;8.20;2.35;;;20.70;99.90;;;;;;5008292;28;20574;-63
2022/08/01 09:28:48;;;;;;;11.63;2.90;;;20.90;99.90;;;;;;5010443;28;20417;-63
2022/08/01 09:31:16;;;;;;;10.38;2.70;;;21.00;99.90;;;;;;5007968;28;20041;-65
2022/08/01 09:33:55;;;;;;;9.27;2.33;;;21.20;99.90;;;;;;5003610;28;20732;-63
2022/08/01 09:36:24;;;;;;;10.95;3.03;;;21.30;99.90;;;;;;5007138;28;20045;-63
2022/08/01 09:38:51;;;;;;;10.38;3.00;;;21.50;99.90;;;;;;5009873;28;20469;-63
2022/08/01 09:41:27;;;;;;;9.45;2.17;;;21.70;99.90;;;;;;5007220;28;20034;-64
2022/08/01 09:43:53;;;;;;;6.43;2.63;;;21.90;99.90;;;;;;5004668;28;20092;-64
2022/08/01 09:46:19;;;;;;;14.05;3.35;;;22.00;99.90;;;;;;5007524;28;21779;-65
2022/08/01 09:48:59;;;;;;;10.02;2.40;;;22.10;99.90;;;;;;5007994;28;20128;-63
2022/08/01 09:51:43;;;;;;;11.35;2.38;;;22.20;99.90;;;;;;5002420;28;20092;-65
2022/08/01 09:54:09;;;;;;;9.00;2.40;;;22.20;99.90;;;;;;5006609;28;20053;-64
2022/08/01 09:56:42;;;;;;;7.00;2.38;;;22.20;99.90;;;;;;5009525;28;20033;-63
2022/08/01 09:59:09;;;;;;;8.15;1.98;;;22.30;99.90;;;;;;4999637;28;20103;-64
2022/08/01 10:01:49;;;;;;;7.32;2.00;;;22.30;99.90;;;;;;5013295;28;20034;-63
2022/08/01 10:04:16;;;;;;;4.90;1.73;;;22.40;99.90;;;;;;5010890;28;20030;-64
2022/08/01 10:06:45;;;;;;;6.28;1.95;;;22.40;99.90;;;;;;5010050;28;20390;-65
2022/08/01 10:09:12;;;;;;;8.25;2.22;;;22.30;99.90;;;;;;5012117;28;20499;-64
2022/08/01 10:11:41;;;;;;;8.35;2.30;;;22.40;99.90;;;;;;5011050;28;20061;-64
2022/08/01 10:14:07;;;;;;;10.55;1.98;;;22.50;99.90;;;;;;5002351;28;20034;-64
2022/08/01 10:16:35;;;;;;;8.18;2.20;;;22.50;99.90;;;;;;5006546;28;20524;-65
2022/08/01 10:19:06;;;;;;;7.03;2.20;;;22.60;99.90;;;;;;5012576;28;20096;-66
2022/08/01 10:21:34;;;;;;;8.80;2.42;;;22.60;99.90;;;;;;5010715;28;20113;-64
2022/08/01 10:24:02;;;;;;;7.32;2.05;;;22.70;99.90;;;;;;5019620;28;20058;-67
2022/08/01 10:26:32;;;;;;;7.55;2.20;;;22.80;99.90;;;;;;4998965;28;20073;-64
2022/08/01 10:28:57;;;;;;;8.23;2.40;;;22.80;99.90;;;;;;5002224;28;20039;-63
2022/08/01 10:31:23;;;;;;;8.65;2.22;;;22.70;99.90;;;;;;5012557;28;20033;-64
2022/08/01 10:33:50;;;;;;;10.82;2.25;;;22.80;99.90;;;;;;5012944;28;20037;-64
2022/08/01 10:36:19;;;;;;;6.82;2.15;;;22.90;99.90;;;;;;5012423;28;20753;-64
2022/08/01 10:38:46;;;;;;;7.57;2.25;;;22.90;99.90;;;;;;5009231;28;20496;-64
2022/08/01 10:41:15;;;;;;;7.28;2.30;;;23.00;99.90;;;;;;5011338;28;20052;-64
2022/08/01 10:43:41;;;;;;;8.95;1.80;;;23.10;99.90;;;;;;5012535;28;20104;-64
2022/08/01 10:46:07;;;;;;;3.97;1.90;;;23.10;99.90;;;;;;5011241;28;20060;-64
2022/08/01 10:48:52;;;;;;;5.72;2.03;;;23.10;99.90;;;;;;5010143;28;20081;-64
2022/08/01 10:51:20;;;;;;;6.30;2.08;;;23.20;99.90;;;;;;5011490;28;20042;-64
2022/08/01 10:53:48;;;;;;;5.22;1.50;;;23.20;99.90;;;;;;5007606;28;20461;-64
2022/08/01 10:56:13;;;;;;;8.30;2.10;;;23.30;99.90;;;;;;5012803;28;20038;-64
2022/08/01 10:58:42;;;;;;;7.15;2.08;;;23.40;99.90;;;;;;5010596;28;20121;-64
2022/08/01 11:01:19;;;;;;;7.18;2.05;;;23.40;99.90;;;;;;5004335;28;20034;-67
2022/08/01 11:04:12;;;;;;;4.97;1.60;;;23.50;99.30;;;;;;5010747;28;20119;-66
2022/08/01 11:07:01;;;;;;;6.13;1.55;;;23.60;98.90;;;;;;4999126;28;20038;-67
2022/08/01 11:10:05;;;;;;;5.13;1.70;;;23.60;99.60;;;;;;5004969;28;20073;-67
2022/08/01 11:12:41;;;;;;;7.82;2.22;;;23.80;97.70;;;;;;5006526;28;20049;-66
2022/08/01 11:15:10;;;;;;;4.50;1.63;;;23.70;97.40;;;;;;5012280;28;20053;-65
2022/08/01 11:17:47;;;;;;;5.35;1.75;;;23.50;98.00;;;;;;5007995;28;20042;-66
2022/08/01 11:20:16;;;;;;;6.32;1.90;;;23.30;98.00;;;;;;5012029;28;20048;-67
2022/08/01 11:23:00;;;;;;;7.47;2.03;;;23.20;97.60;;;;;;5009966;28;20045;-66
2022/08/01 11:25:45;;;;;;;4.45;1.70;;;23.00;97.30;;;;;;5010768;28;20052;-67
2022/08/01 11:28:15;;;;;;;6.35;1.92;;;22.80;97.70;;;;;;5004379;28;20045;-66
2022/08/01 11:30:42;;;;;;;5.38;1.58;;;22.80;98.60;;;;;;5011720;28;20504;-67
2022/08/01 11:33:10;;;;;;;3.88;1.45;;;22.70;99.00;;;;;;5011385;28;20674;-66
2022/08/01 11:35:37;;;;;;;5.55;1.60;;;22.70;98.90;;;;;;5012067;28;20077;-66
2022/08/01 11:38:29;;;;;;;7.50;2.17;;;22.70;99.10;;;;;;5009856;28;20038;-67
2022/08/01 11:41:23;;;;;;;4.93;1.80;;;22.80;98.40;;;;;;5003890;28;20099;-67
2022/08/01 11:43:58;;;;;;;4.25;1.48;;;22.80;98.40;;;;;;5007259;28;20095;-67
2022/08/01 11:46:58;;;;;;;3.47;1.48;;;22.90;98.90;;;;;;5011989;28;20037;-66
2022/08/01 11:49:25;;;;;;;6.05;1.67;;;23.00;98.70;;;;;;5009399;28;20048;-66
2022/08/01 11:52:03;;;;;;;4.43;1.60;;;23.00;98.80;;;;;;5009813;28;20050;-66
2022/08/01 11:54:31;;;;;;;5.13;1.60;;;23.10;98.50;;;;;;5004202;28;20092;-66
2022/08/01 11:56:59;;;;;;;5.93;1.63;;;23.20;98.40;;;;;;5008708;28;20122;-67
2022/08/01 11:59:25;;;;;;;5.00;1.67;;;23.30;98.30;;;;;;5000497;28;20440;-67
2022/08/01 12:01:51;;;;;;;5.05;1.95;;;23.40;97.80;;;;;;5011695;28;20065;-66
2022/08/01 12:04:17;;;;;;;4.65;1.70;;;23.40;97.60;;;;;;5006679;28;20034;-64
2022/08/01 12:06:42;;;;;;;4.35;1.48;;;23.30;97.10;;;;;;5011784;28;20124;-66
2022/08/01 12:09:26;;;;;;;4.70;1.80;;;23.30;97.10;;;;;;5003912;28;20030;-64
2022/08/01 12:11:52;;;;;;;4.53;1.83;;;23.10;96.60;;;;;;5011693;28;20037;-63
2022/08/01 12:14:19;;;;;;;4.07;1.67;;;23.10;97.30;;;;;;5008292;28;20081;-63
2022/08/01 12:16:53;;;;;;;4.72;1.98;;;23.00;97.30;;;;;;5007222;28;20117;-64
2022/08/01 12:19:23;;;;;;;6.15;1.55;;;23.00;97.20;;;;;;5024326;28;20042;-68
2022/08/01 12:22:09;;;;;;;6.00;1.50;;;23.00;97.10;;;;;;5006304;28;20037;-66
2022/08/01 12:24:36;;;;;;;4.30;1.80;;;23.20;96.90;;;;;;5011311;28;20056;-66
2022/08/01 12:27:02;;;;;;;3.88;1.70;;;23.20;97.10;;;;;;5010947;28;20052;-66
2022/08/01 12:29:35;;;;;;;4.40;1.60;;;23.20;96.70;;;;;;5002430;28;20038;-64
2022/08/01 12:32:02;;;;;;;3.58;1.50;;;23.30;96.50;;;;;;5001465;28;20057;-68
2022/08/01 12:34:33;;;;;;;3.92;1.70;;;23.30;96.80;;;;;;5009813;28;20037;-64
2022/08/01 12:37:00;;;;;;;5.20;1.65;;;23.30;96.70;;;;;;5006057;28;20052;-69
2022/08/01 12:39:33;;;;;;;5.30;1.50;;;23.30;96.90;;;;;;5009942;28;20100;-64
2022/08/01 12:41:59;;;;;;;5.05;1.80;;;23.20;96.60;;;;;;5009324;28;20099;-64
2022/08/01 12:44:27;;;;;;;5.97;1.58;;;23.10;96.60;;;;;;5003073;28;20117;-63
2022/08/01 12:46:53;;;;;;;5.50;1.48;;;22.90;96.90;;;;;;5010481;28;20037;-67
2022/08/01 12:49:19;;;;;;;4.35;1.63;;;22.90;96.60;;;;;;5009023;28;20453;-63
2022/08/01 12:51:45;;;;;;;4.28;1.40;;;22.90;96.10;;;;;;5010053;28;20030;-63
2022/08/01 12:54:11;;;;;;;4.07;1.40;;;22.90;95.60;;;;;;5010140;28;20120;-63